sensor_id;sensor_type;location;lat;lon;timestamp;noise_LAeq;noise_LA_min;noise_LA_max;noise_LA01;noise_LA95
37279;Laerm;7458;49.002;8.472;2023-02-01T00:00:14;45.47;41.38;52.63;;
37279;Laerm;7458;49.002;8.472;2023-02-01T00:02:40;46.27;41.46;67.89;;
37279;Laerm;7458;49.002;8.472;2023-02-01T00:05:10;46.07;43.04;55.65;;
37279;Laerm;7458;49.002;8.472;2023-02-01T00:07:37;46.31;42.65;62.38;;
37279;Laerm;7458;49.002;8.472;2023-02-01T00:10:05;46.42;42.53;52.07;;
37279;Laerm;7458;49.002;8.472;2023-02-01T00:12:31;46.26;41.61;52.39;;
37279;Laerm;7458;49.002;8.472;2023-02-01T00:14:57;45.97;41.30;56.93;;
37279;Laerm;7458;49.002;8.472;2023-02-01T00:17:23;45.68;40.71;60.36;;
37279;Laerm;7458;49.002;8.472;2023-02-01T00:19:50;46.18;41.89;52.85;;
37279;Laerm;7458;49.002;8.472;2023-02-01T00:22:15;45.96;42.35;52.31;;
37279;Laerm;7458;49.002;8.472;2023-02-01T00:24:42;45.57;41.75;52.23;;
37279;Laerm;7458;49.002;8.472;2023-02-01T00:27:08;47.52;42.16;70.92;;
37279;Laerm;7458;49.002;8.472;2023-02-01T00:29:34;45.68;41.61;52.44;;
37279;Laerm;7458;49.002;8.472;2023-02-01T00:31:59;46.65;43.14;53.02;;
37279;Laerm;7458;49.002;8.472;2023-02-01T00:34:26;45.96;41.82;55.06;;
37279;Laerm;7458;49.002;8.472;2023-02-01T00:36:51;52.96;42.22;68.04;;
37279;Laerm;7458;49.002;8.472;2023-02-01T00:39:17;46.16;41.75;61.27;;
37279;Laerm;7458;49.002;8.472;2023-02-01T00:41:43;46.06;42.35;54.97;;
37279;Laerm;7458;49.002;8.472;2023-02-01T00:44:09;47.27;42.29;74.20;;
37279;Laerm;7458;49.002;8.472;2023-02-01T00:46:35;47.19;41.96;67.21;;
37279;Laerm;7458;49.002;8.472;2023-02-01T00:49:02;48.79;42.22;74.18;;
37279;Laerm;7458;49.002;8.472;2023-02-01T00:51:29;45.68;41.82;52.74;;
37279;Laerm;7458;49.002;8.472;2023-02-01T00:53:56;55.56;41.96;82.80;;
37279;Laerm;7458;49.002;8.472;2023-02-01T00:56:22;46.35;42.53;52.81;;
37279;Laerm;7458;49.002;8.472;2023-02-01T00:58:48;46.17;42.65;60.14;;
37279;Laerm;7458;49.002;8.472;2023-02-01T01:01:22;45.48;41.22;52.75;;
37279;Laerm;7458;49.002;8.472;2023-02-01T01:03:54;45.63;42.16;67.91;;
37279;Laerm;7458;49.002;8.472;2023-02-01T01:06:26;47.33;42.16;68.62;;
37279;Laerm;7458;49.002;8.472;2023-02-01T01:08:55;47.94;43.19;71.80;;
37279;Laerm;7458;49.002;8.472;2023-02-01T01:11:31;45.53;41.89;60.99;;
37279;Laerm;7458;49.002;8.472;2023-02-01T01:13:58;47.30;42.29;61.79;;
37279;Laerm;7458;49.002;8.472;2023-02-01T01:16:27;53.93;41.30;78.47;;
37279;Laerm;7458;49.002;8.472;2023-02-01T01:18:55;46.24;42.47;62.23;;
37279;Laerm;7458;49.002;8.472;2023-02-01T01:21:21;45.89;42.22;53.17;;
37279;Laerm;7458;49.002;8.472;2023-02-01T01:23:50;45.93;42.59;52.90;;
37279;Laerm;7458;49.002;8.472;2023-02-01T01:26:24;45.73;42.29;52.64;;
37279;Laerm;7458;49.002;8.472;2023-02-01T01:28:51;46.79;42.03;64.06;;
37279;Laerm;7458;49.002;8.472;2023-02-01T01:31:19;46.51;42.22;59.13;;
37279;Laerm;7458;49.002;8.472;2023-02-01T01:33:53;47.36;42.03;65.13;;
37279;Laerm;7458;49.002;8.472;2023-02-01T01:36:20;46.16;42.22;53.33;;
37279;Laerm;7458;49.002;8.472;2023-02-01T01:38:46;46.29;42.22;56.77;;
37279;Laerm;7458;49.002;8.472;2023-02-01T01:41:33;45.91;42.09;53.23;;
37279;Laerm;7458;49.002;8.472;2023-02-01T01:44:04;48.20;42.82;72.28;;
37279;Laerm;7458;49.002;8.472;2023-02-01T01:46:38;55.21;42.47;80.65;;
37279;Laerm;7458;49.002;8.472;2023-02-01T01:51:48;46.49;41.89;67.33;;
37279;Laerm;7458;49.002;8.472;2023-02-01T01:54:22;46.07;42.53;55.39;;
37279;Laerm;7458;49.002;8.472;2023-02-01T01:57:02;46.40;41.30;56.20;;
37279;Laerm;7458;49.002;8.472;2023-02-01T01:59:32;51.11;42.71;75.51;;
37279;Laerm;7458;49.002;8.472;2023-02-01T02:02:01;46.11;42.76;52.59;;
37279;Laerm;7458;49.002;8.472;2023-02-01T02:04:27;45.94;42.22;58.15;;
37279;Laerm;7458;49.002;8.472;2023-02-01T02:07:08;46.55;41.82;56.29;;
37279;Laerm;7458;49.002;8.472;2023-02-01T02:09:35;46.00;42.22;58.20;;
37279;Laerm;7458;49.002;8.472;2023-02-01T02:12:01;50.58;42.03;76.58;;
37279;Laerm;7458;49.002;8.472;2023-02-01T02:14:27;56.56;42.47;87.18;;
37279;Laerm;7458;49.002;8.472;2023-02-01T02:28:39;45.79;42.03;60.35;;
37279;Laerm;7458;49.002;8.472;2023-02-01T02:40:06;60.51;42.29;87.50;;
37279;Laerm;7458;49.002;8.472;2023-02-01T02:43:02;46.09;42.82;52.91;;
37279;Laerm;7458;49.002;8.472;2023-02-01T02:46:02;46.86;42.59;61.26;;
37279;Laerm;7458;49.002;8.472;2023-02-01T02:51:50;46.49;43.09;64.05;;
37279;Laerm;7458;49.002;8.472;2023-02-01T02:54:42;46.97;43.54;56.20;;
37279;Laerm;7458;49.002;8.472;2023-02-01T02:57:36;49.14;44.35;63.67;;
37279;Laerm;7458;49.002;8.472;2023-02-01T03:00:28;46.81;42.76;53.89;;
37279;Laerm;7458;49.002;8.472;2023-02-01T03:03:13;46.21;42.65;57.18;;
37279;Laerm;7458;49.002;8.472;2023-02-01T03:05:57;46.04;42.71;53.02;;
37279;Laerm;7458;49.002;8.472;2023-02-01T03:08:29;51.09;43.76;72.93;;
37279;Laerm;7458;49.002;8.472;2023-02-01T03:11:08;46.45;43.09;53.22;;
37279;Laerm;7458;49.002;8.472;2023-02-01T03:13:56;46.61;42.82;67.54;;
37279;Laerm;7458;49.002;8.472;2023-02-01T03:16:28;47.12;42.41;63.35;;
37279;Laerm;7458;49.002;8.472;2023-02-01T03:19:07;48.33;43.72;68.89;;
37279;Laerm;7458;49.002;8.472;2023-02-01T03:21:58;52.45;43.04;79.05;;
37279;Laerm;7458;49.002;8.472;2023-02-01T03:24:33;47.17;43.44;63.59;;
37279;Laerm;7458;49.002;8.472;2023-02-01T03:27:27;47.52;43.68;60.11;;
37279;Laerm;7458;49.002;8.472;2023-02-01T03:30:21;48.49;43.80;66.44;;
37279;Laerm;7458;49.002;8.472;2023-02-01T03:32:52;47.02;43.04;62.72;;
37279;Laerm;7458;49.002;8.472;2023-02-01T03:35:50;53.36;43.29;71.78;;
37279;Laerm;7458;49.002;8.472;2023-02-01T03:38:32;47.43;44.27;54.28;;
37279;Laerm;7458;49.002;8.472;2023-02-01T03:41:11;51.73;43.63;68.08;;
37279;Laerm;7458;49.002;8.472;2023-02-01T03:44:01;51.45;44.03;74.57;;
37279;Laerm;7458;49.002;8.472;2023-02-01T03:46:41;47.82;42.59;58.13;;
37279;Laerm;7458;49.002;8.472;2023-02-01T03:49:14;47.65;43.86;58.92;;
37279;Laerm;7458;49.002;8.472;2023-02-01T03:51:41;51.00;44.47;72.33;;
37279;Laerm;7458;49.002;8.472;2023-02-01T03:54:13;55.81;43.54;82.38;;
37279;Laerm;7458;49.002;8.472;2023-02-01T03:56:44;50.79;43.81;68.85;;
37279;Laerm;7458;49.002;8.472;2023-02-01T03:59:12;49.03;43.99;72.23;;
37279;Laerm;7458;49.002;8.472;2023-02-01T04:01:39;55.35;43.94;74.23;;
37279;Laerm;7458;49.002;8.472;2023-02-01T04:04:05;47.69;44.31;56.57;;
37279;Laerm;7458;49.002;8.472;2023-02-01T04:06:31;48.44;44.47;63.78;;
37279;Laerm;7458;49.002;8.472;2023-02-01T04:08:59;48.78;44.51;70.08;;
37279;Laerm;7458;49.002;8.472;2023-02-01T04:11:25;48.83;45.01;61.25;;
37279;Laerm;7458;49.002;8.472;2023-02-01T04:13:53;50.65;44.65;62.98;;
37279;Laerm;7458;49.002;8.472;2023-02-01T04:16:18;48.07;44.15;57.02;;
37279;Laerm;7458;49.002;8.472;2023-02-01T04:18:44;48.42;44.65;57.23;;
37279;Laerm;7458;49.002;8.472;2023-02-01T04:21:10;49.81;44.03;73.64;;
37279;Laerm;7458;49.002;8.472;2023-02-01T04:23:36;48.47;44.62;54.48;;
37279;Laerm;7458;49.002;8.472;2023-02-01T04:26:04;49.19;45.57;62.65;;
37279;Laerm;7458;49.002;8.472;2023-02-01T04:28:30;49.18;44.76;65.50;;
37279;Laerm;7458;49.002;8.472;2023-02-01T04:30:56;50.87;45.04;67.38;;
37279;Laerm;7458;49.002;8.472;2023-02-01T04:33:22;48.93;44.07;61.57;;
37279;Laerm;7458;49.002;8.472;2023-02-01T04:35:48;50.52;44.39;71.13;;
37279;Laerm;7458;49.002;8.472;2023-02-01T04:38:14;49.06;45.17;63.71;;
37279;Laerm;7458;49.002;8.472;2023-02-01T04:40:39;50.37;44.90;65.74;;
37279;Laerm;7458;49.002;8.472;2023-02-01T04:43:05;49.33;44.65;76.53;;
37279;Laerm;7458;49.002;8.472;2023-02-01T04:45:31;56.23;45.60;73.78;;
37279;Laerm;7458;49.002;8.472;2023-02-01T04:47:57;50.38;44.87;66.42;;
37279;Laerm;7458;49.002;8.472;2023-02-01T04:50:22;49.07;45.36;55.83;;
37279;Laerm;7458;49.002;8.472;2023-02-01T04:52:49;51.99;44.97;68.46;;
37279;Laerm;7458;49.002;8.472;2023-02-01T04:55:15;49.97;45.48;63.66;;
37279;Laerm;7458;49.002;8.472;2023-02-01T04:57:41;50.68;45.77;64.75;;
37279;Laerm;7458;49.002;8.472;2023-02-01T05:00:09;49.52;44.97;66.01;;
37279;Laerm;7458;49.002;8.472;2023-02-01T05:02:35;51.21;45.63;62.04;;
37279;Laerm;7458;49.002;8.472;2023-02-01T05:05:02;49.61;45.99;64.48;;
37279;Laerm;7458;49.002;8.472;2023-02-01T05:07:27;55.45;46.45;72.62;;
37279;Laerm;7458;49.002;8.472;2023-02-01T05:09:53;54.70;47.08;80.27;;
37279;Laerm;7458;49.002;8.472;2023-02-01T05:12:19;51.00;46.55;68.50;;
37279;Laerm;7458;49.002;8.472;2023-02-01T05:15:03;50.48;46.23;59.30;;
37279;Laerm;7458;49.002;8.472;2023-02-01T05:17:29;53.34;46.13;73.69;;
37279;Laerm;7458;49.002;8.472;2023-02-01T05:19:58;54.39;46.20;70.82;;
37279;Laerm;7458;49.002;8.472;2023-02-01T05:22:23;53.31;45.48;65.73;;
37279;Laerm;7458;49.002;8.472;2023-02-01T05:24:49;52.11;47.20;63.70;;
37279;Laerm;7458;49.002;8.472;2023-02-01T05:27:15;50.20;45.70;60.97;;
37279;Laerm;7458;49.002;8.472;2023-02-01T05:29:40;53.89;46.48;70.18;;
37279;Laerm;7458;49.002;8.472;2023-02-01T05:32:06;56.42;45.99;73.08;;
37279;Laerm;7458;49.002;8.472;2023-02-01T05:34:32;60.20;46.07;77.28;;
37279;Laerm;7458;49.002;8.472;2023-02-01T05:36:57;53.72;46.10;70.09;;
37279;Laerm;7458;49.002;8.472;2023-02-01T05:39:23;53.72;45.89;75.12;;
37279;Laerm;7458;49.002;8.472;2023-02-01T05:41:49;51.64;46.59;67.89;;
37279;Laerm;7458;49.002;8.472;2023-02-01T05:44:15;55.12;46.38;69.11;;
37279;Laerm;7458;49.002;8.472;2023-02-01T05:46:40;59.62;47.00;79.81;;
37279;Laerm;7458;49.002;8.472;2023-02-01T05:49:06;52.43;46.15;66.06;;
37279;Laerm;7458;49.002;8.472;2023-02-01T05:51:33;49.86;45.36;55.01;;
37279;Laerm;7458;49.002;8.472;2023-02-01T05:53:59;55.04;46.40;71.05;;
37279;Laerm;7458;49.002;8.472;2023-02-01T05:56:25;53.23;46.57;76.53;;
37279;Laerm;7458;49.002;8.472;2023-02-01T05:58:51;51.05;46.28;65.77;;
37279;Laerm;7458;49.002;8.472;2023-02-01T06:01:17;52.90;46.25;62.78;;
37279;Laerm;7458;49.002;8.472;2023-02-01T06:03:43;52.71;46.18;68.35;;
37279;Laerm;7458;49.002;8.472;2023-02-01T06:06:08;50.35;46.10;55.95;;
37279;Laerm;7458;49.002;8.472;2023-02-01T06:08:34;56.51;47.18;71.41;;
37279;Laerm;7458;49.002;8.472;2023-02-01T06:11:04;51.07;46.59;68.79;;
37279;Laerm;7458;49.002;8.472;2023-02-01T06:13:31;55.86;46.13;71.81;;
37279;Laerm;7458;49.002;8.472;2023-02-01T06:15:57;51.16;47.16;64.29;;
37279;Laerm;7458;49.002;8.472;2023-02-01T06:18:24;51.56;47.10;60.58;;
37279;Laerm;7458;49.002;8.472;2023-02-01T06:20:58;53.25;46.20;65.94;;
37279;Laerm;7458;49.002;8.472;2023-02-01T06:23:29;54.64;46.78;70.79;;
37279;Laerm;7458;49.002;8.472;2023-02-01T06:26:04;53.68;46.25;69.08;;
37279;Laerm;7458;49.002;8.472;2023-02-01T06:28:32;56.75;46.40;71.76;;
37279;Laerm;7458;49.002;8.472;2023-02-01T06:31:05;55.22;47.46;78.84;;
37279;Laerm;7458;49.002;8.472;2023-02-01T06:33:36;56.61;46.69;76.93;;
37279;Laerm;7458;49.002;8.472;2023-02-01T06:36:05;63.20;47.50;90.42;;
37279;Laerm;7458;49.002;8.472;2023-02-01T06:38:35;56.33;47.16;69.34;;
37279;Laerm;7458;49.002;8.472;2023-02-01T06:41:01;52.73;46.66;70.86;;
37279;Laerm;7458;49.002;8.472;2023-02-01T06:43:28;55.21;46.30;69.33;;
37279;Laerm;7458;49.002;8.472;2023-02-01T06:46:02;57.83;47.50;73.35;;
37279;Laerm;7458;49.002;8.472;2023-02-01T06:48:29;57.65;44.98;73.97;;
37279;Laerm;7458;49.002;8.472;2023-02-01T06:50:54;53.94;45.39;74.19;;
37279;Laerm;7458;49.002;8.472;2023-02-01T06:53:20;56.33;45.89;73.42;;
37279;Laerm;7458;49.002;8.472;2023-02-01T06:55:54;55.21;46.20;73.76;;
37279;Laerm;7458;49.002;8.472;2023-02-01T06:58:21;58.21;47.03;70.71;;
37279;Laerm;7458;49.002;8.472;2023-02-01T07:00:47;56.84;46.15;68.66;;
37279;Laerm;7458;49.002;8.472;2023-02-01T07:03:12;57.28;46.18;84.03;;
37279;Laerm;7458;49.002;8.472;2023-02-01T07:05:38;55.03;45.77;71.70;;
37279;Laerm;7458;49.002;8.472;2023-02-01T07:08:04;53.04;46.52;67.04;;
37279;Laerm;7458;49.002;8.472;2023-02-01T07:10:30;55.89;46.82;76.27;;
37279;Laerm;7458;49.002;8.472;2023-02-01T07:12:58;60.20;48.28;73.88;;
37279;Laerm;7458;49.002;8.472;2023-02-01T07:15:25;56.09;47.95;74.66;;
37279;Laerm;7458;49.002;8.472;2023-02-01T07:17:50;58.98;48.21;72.91;;
37279;Laerm;7458;49.002;8.472;2023-02-01T07:20:17;53.78;46.89;69.11;;
37279;Laerm;7458;49.002;8.472;2023-02-01T07:22:42;55.89;46.18;72.96;;
37279;Laerm;7458;49.002;8.472;2023-02-01T07:25:11;53.40;46.57;66.15;;
37279;Laerm;7458;49.002;8.472;2023-02-01T07:27:37;59.82;47.83;74.92;;
37279;Laerm;7458;49.002;8.472;2023-02-01T07:30:07;60.03;48.42;73.45;;
37279;Laerm;7458;49.002;8.472;2023-02-01T07:32:33;59.20;49.52;72.63;;
37279;Laerm;7458;49.002;8.472;2023-02-01T07:34:59;58.42;47.18;79.93;;
37279;Laerm;7458;49.002;8.472;2023-02-01T07:37:25;56.36;47.16;69.58;;
37279;Laerm;7458;49.002;8.472;2023-02-01T07:39:51;58.55;46.95;84.02;;
37279;Laerm;7458;49.002;8.472;2023-02-01T07:42:17;55.77;47.91;70.00;;
37279;Laerm;7458;49.002;8.472;2023-02-01T07:44:43;59.10;47.24;78.99;;
37279;Laerm;7458;49.002;8.472;2023-02-01T07:47:09;58.50;46.82;70.67;;
37279;Laerm;7458;49.002;8.472;2023-02-01T07:49:35;57.74;47.50;70.76;;
37279;Laerm;7458;49.002;8.472;2023-02-01T07:52:01;55.58;47.95;70.60;;
37279;Laerm;7458;49.002;8.472;2023-02-01T07:54:29;62.79;48.92;83.17;;
37279;Laerm;7458;49.002;8.472;2023-02-01T07:56:56;57.73;47.36;70.32;;
37279;Laerm;7458;49.002;8.472;2023-02-01T07:59:22;54.01;46.69;68.57;;
37279;Laerm;7458;49.002;8.472;2023-02-01T08:01:47;57.18;46.91;80.89;;
37279;Laerm;7458;49.002;8.472;2023-02-01T08:04:13;57.62;46.40;70.79;;
37279;Laerm;7458;49.002;8.472;2023-02-01T08:06:40;51.37;46.64;63.21;;
37279;Laerm;7458;49.002;8.472;2023-02-01T08:09:07;54.02;47.30;68.66;;
37279;Laerm;7458;49.002;8.472;2023-02-01T08:11:37;54.64;47.48;71.41;;
37279;Laerm;7458;49.002;8.472;2023-02-01T08:14:04;56.84;47.20;76.52;;
37279;Laerm;7458;49.002;8.472;2023-02-01T08:16:30;59.58;47.54;85.14;;
37279;Laerm;7458;49.002;8.472;2023-02-01T08:18:56;55.78;47.26;73.95;;
37279;Laerm;7458;49.002;8.472;2023-02-01T08:21:26;60.69;47.91;94.13;;
37279;Laerm;7458;49.002;8.472;2023-02-01T08:24:08;57.50;48.08;84.42;;
37279;Laerm;7458;49.002;8.472;2023-02-01T08:26:35;57.24;48.25;81.22;;
37279;Laerm;7458;49.002;8.472;2023-02-01T08:29:03;58.80;47.06;76.42;;
37279;Laerm;7458;49.002;8.472;2023-02-01T08:31:31;59.66;47.98;82.71;;
37279;Laerm;7458;49.002;8.472;2023-02-01T08:34:01;54.77;47.48;70.12;;
37279;Laerm;7458;49.002;8.472;2023-02-01T08:36:31;56.41;47.08;78.82;;
37279;Laerm;7458;49.002;8.472;2023-02-01T08:38:57;54.34;47.06;65.91;;
37279;Laerm;7458;49.002;8.472;2023-02-01T08:41:28;59.66;47.10;87.89;;
37279;Laerm;7458;49.002;8.472;2023-02-01T08:43:55;57.67;48.78;85.03;;
37279;Laerm;7458;49.002;8.472;2023-02-01T08:46:23;58.22;47.72;79.00;;
37279;Laerm;7458;49.002;8.472;2023-02-01T08:48:49;51.70;47.72;67.84;;
37279;Laerm;7458;49.002;8.472;2023-02-01T08:51:18;54.88;47.28;73.53;;
37279;Laerm;7458;49.002;8.472;2023-02-01T08:53:44;56.75;47.79;73.82;;
37279;Laerm;7458;49.002;8.472;2023-02-01T08:56:13;56.76;47.84;71.05;;
37279;Laerm;7458;49.002;8.472;2023-02-01T08:58:40;57.70;47.20;79.26;;
37279;Laerm;7458;49.002;8.472;2023-02-01T09:01:08;54.09;46.71;64.39;;
37279;Laerm;7458;49.002;8.472;2023-02-01T09:03:34;60.91;47.96;83.02;;
37279;Laerm;7458;49.002;8.472;2023-02-01T09:06:07;57.73;47.74;72.20;;
37279;Laerm;7458;49.002;8.472;2023-02-01T09:08:34;52.16;46.64;63.29;;
37279;Laerm;7458;49.002;8.472;2023-02-01T09:11:09;57.33;47.68;69.36;;
37279;Laerm;7458;49.002;8.472;2023-02-01T09:13:35;57.56;46.89;71.92;;
37279;Laerm;7458;49.002;8.472;2023-02-01T09:16:03;55.81;47.10;79.89;;
37279;Laerm;7458;49.002;8.472;2023-02-01T09:18:29;61.91;48.29;78.39;;
37279;Laerm;7458;49.002;8.472;2023-02-01T09:20:55;55.72;47.22;70.49;;
37279;Laerm;7458;49.002;8.472;2023-02-01T09:23:21;64.18;46.45;80.16;;
37279;Laerm;7458;49.002;8.472;2023-02-01T09:25:47;53.20;47.74;72.24;;
37279;Laerm;7458;49.002;8.472;2023-02-01T09:28:16;54.28;46.23;70.07;;
37279;Laerm;7458;49.002;8.472;2023-02-01T09:30:42;58.34;47.00;77.02;;
37279;Laerm;7458;49.002;8.472;2023-02-01T09:33:08;54.96;46.35;70.47;;
37279;Laerm;7458;49.002;8.472;2023-02-01T09:35:33;52.94;45.89;65.54;;
37279;Laerm;7458;49.002;8.472;2023-02-01T09:37:59;52.72;45.94;67.27;;
37279;Laerm;7458;49.002;8.472;2023-02-01T09:40:25;54.06;46.80;69.84;;
37279;Laerm;7458;49.002;8.472;2023-02-01T09:43:33;53.61;45.57;76.34;;
37279;Laerm;7458;49.002;8.472;2023-02-01T09:46:28;61.81;45.91;89.64;;
37279;Laerm;7458;49.002;8.472;2023-02-01T09:49:00;56.16;46.80;69.14;;
37279;Laerm;7458;49.002;8.472;2023-02-01T09:51:52;55.16;45.97;68.95;;
37279;Laerm;7458;49.002;8.472;2023-02-01T09:54:25;56.83;46.30;71.49;;
37279;Laerm;7458;49.002;8.472;2023-02-01T09:57:11;54.05;45.86;72.59;;
37279;Laerm;7458;49.002;8.472;2023-02-01T09:59:48;57.02;46.56;71.64;;
37279;Laerm;7458;49.002;8.472;2023-02-01T10:02:21;53.36;47.22;67.25;;
37279;Laerm;7458;49.002;8.472;2023-02-01T10:04:48;54.58;46.52;66.74;;
37279;Laerm;7458;49.002;8.472;2023-02-01T10:07:41;56.34;47.20;69.24;;
37279;Laerm;7458;49.002;8.472;2023-02-01T10:11:15;55.55;46.67;70.97;;
37279;Laerm;7458;49.002;8.472;2023-02-01T10:16:58;55.91;45.72;68.90;;
37279;Laerm;7458;49.002;8.472;2023-02-01T10:19:58;54.90;46.66;70.81;;
37279;Laerm;7458;49.002;8.472;2023-02-01T10:22:47;52.63;45.33;70.30;;
37279;Laerm;7458;49.002;8.472;2023-02-01T10:28:16;56.15;45.60;69.92;;
37279;Laerm;7458;49.002;8.472;2023-02-01T10:30:46;58.70;46.57;72.47;;
37279;Laerm;7458;49.002;8.472;2023-02-01T10:33:26;54.02;46.25;72.50;;
37279;Laerm;7458;49.002;8.472;2023-02-01T10:36:14;54.97;46.10;78.77;;
37279;Laerm;7458;49.002;8.472;2023-02-01T10:38:43;50.65;46.43;61.55;;
37279;Laerm;7458;49.002;8.472;2023-02-01T10:41:17;57.16;45.54;70.99;;
37279;Laerm;7458;49.002;8.472;2023-02-01T10:43:48;51.92;46.62;69.84;;
37279;Laerm;7458;49.002;8.472;2023-02-01T10:46:16;53.06;45.69;67.56;;
37279;Laerm;7458;49.002;8.472;2023-02-01T10:48:43;54.42;46.59;69.15;;
37279;Laerm;7458;49.002;8.472;2023-02-01T10:51:24;55.69;46.10;72.54;;
37279;Laerm;7458;49.002;8.472;2023-02-01T10:54:03;57.79;45.99;80.47;;
37279;Laerm;7458;49.002;8.472;2023-02-01T10:56:38;53.85;46.78;70.90;;
37279;Laerm;7458;49.002;8.472;2023-02-01T10:59:11;54.27;46.28;65.76;;
37279;Laerm;7458;49.002;8.472;2023-02-01T11:01:43;57.23;46.52;75.09;;
37279;Laerm;7458;49.002;8.472;2023-02-01T11:04:16;54.33;46.57;68.36;;
37279;Laerm;7458;49.002;8.472;2023-02-01T11:06:47;56.44;45.99;70.37;;
37279;Laerm;7458;49.002;8.472;2023-02-01T11:09:24;51.63;45.17;62.59;;
37279;Laerm;7458;49.002;8.472;2023-02-01T11:14:30;52.53;44.80;66.70;;
37279;Laerm;7458;49.002;8.472;2023-02-01T11:17:00;54.84;45.54;72.51;;
37279;Laerm;7458;49.002;8.472;2023-02-01T11:19:27;54.05;45.51;66.57;;
37279;Laerm;7458;49.002;8.472;2023-02-01T11:21:57;55.11;44.97;75.82;;
37279;Laerm;7458;49.002;8.472;2023-02-01T11:24:31;55.17;46.02;68.83;;
37279;Laerm;7458;49.002;8.472;2023-02-01T11:27:02;57.70;45.23;69.69;;
37279;Laerm;7458;49.002;8.472;2023-02-01T11:29:38;54.40;45.93;72.52;;
37279;Laerm;7458;49.002;8.472;2023-02-01T11:32:05;53.91;44.47;65.90;;
37279;Laerm;7458;49.002;8.472;2023-02-01T11:34:52;53.82;44.97;73.16;;
37279;Laerm;7458;49.002;8.472;2023-02-01T11:37:25;54.66;44.87;69.21;;
37279;Laerm;7458;49.002;8.472;2023-02-01T11:40:00;53.64;46.87;68.11;;
37279;Laerm;7458;49.002;8.472;2023-02-01T11:42:28;54.45;46.82;66.66;;
37279;Laerm;7458;49.002;8.472;2023-02-01T11:45:20;63.65;47.38;80.25;;
37279;Laerm;7458;49.002;8.472;2023-02-01T11:47:51;52.15;45.91;67.58;;
37279;Laerm;7458;49.002;8.472;2023-02-01T11:50:27;54.44;47.10;68.88;;
37279;Laerm;7458;49.002;8.472;2023-02-01T12:16:39;57.42;46.10;86.11;;
37279;Laerm;7458;49.002;8.472;2023-02-01T12:22:00;55.85;45.36;70.51;;
37279;Laerm;7458;49.002;8.472;2023-02-01T12:24:58;52.58;46.69;66.11;;
37279;Laerm;7458;49.002;8.472;2023-02-01T12:36:08;53.17;45.45;70.46;;
37279;Laerm;7458;49.002;8.472;2023-02-01T12:44:31;60.11;47.57;76.50;;
37279;Laerm;7458;49.002;8.472;2023-02-01T12:47:22;60.66;46.15;79.63;;
37279;Laerm;7458;49.002;8.472;2023-02-01T12:50:20;54.69;45.23;70.99;;
37279;Laerm;7458;49.002;8.472;2023-02-01T12:52:55;55.85;46.59;69.65;;
37279;Laerm;7458;49.002;8.472;2023-02-01T12:55:36;52.59;46.20;71.12;;
37279;Laerm;7458;49.002;8.472;2023-02-01T12:58:23;54.19;47.08;84.99;;
37279;Laerm;7458;49.002;8.472;2023-02-01T13:01:08;53.59;46.64;76.54;;
37279;Laerm;7458;49.002;8.472;2023-02-01T13:03:54;57.91;47.04;82.81;;
37279;Laerm;7458;49.002;8.472;2023-02-01T13:07:09;53.51;46.57;66.58;;
37279;Laerm;7458;49.002;8.472;2023-02-01T13:09:34;52.66;46.30;63.79;;
37279;Laerm;7458;49.002;8.472;2023-02-01T13:12:16;54.89;46.65;68.32;;
37279;Laerm;7458;49.002;8.472;2023-02-01T13:15:09;62.85;45.72;87.54;;
37279;Laerm;7458;49.002;8.472;2023-02-01T13:17:40;53.98;46.18;67.77;;
37279;Laerm;7458;49.002;8.472;2023-02-01T13:20:28;60.05;46.10;81.07;;
37279;Laerm;7458;49.002;8.472;2023-02-01T13:25:43;53.68;45.66;68.02;;
37279;Laerm;7458;49.002;8.472;2023-02-01T13:43:38;56.91;45.83;76.77;;
37279;Laerm;7458;49.002;8.472;2023-02-01T13:46:10;57.04;45.17;82.11;;
37279;Laerm;7458;49.002;8.472;2023-02-01T13:49:02;54.10;45.31;69.83;;
37279;Laerm;7458;49.002;8.472;2023-02-01T13:51:51;54.55;47.40;68.94;;
37279;Laerm;7458;49.002;8.472;2023-02-01T13:54:36;57.19;45.33;70.81;;
37279;Laerm;7458;49.002;8.472;2023-02-01T13:57:13;56.85;44.90;68.30;;
37279;Laerm;7458;49.002;8.472;2023-02-01T13:59:52;54.96;45.39;77.93;;
37279;Laerm;7458;49.002;8.472;2023-02-01T14:13:35;57.00;45.69;68.97;;
37279;Laerm;7458;49.002;8.472;2023-02-01T14:21:33;51.95;45.07;65.86;;
37279;Laerm;7458;49.002;8.472;2023-02-01T14:26:51;54.16;46.05;67.51;;
37279;Laerm;7458;49.002;8.472;2023-02-01T14:29:29;52.34;44.97;69.85;;
37279;Laerm;7458;49.002;8.472;2023-02-01T14:47:52;53.72;45.91;67.18;;
37279;Laerm;7458;49.002;8.472;2023-02-01T15:01:21;51.04;45.54;68.88;;
37279;Laerm;7458;49.002;8.472;2023-02-01T15:06:50;51.85;45.51;71.08;;
37279;Laerm;7458;49.002;8.472;2023-02-01T15:09:27;56.25;45.72;70.91;;
37279;Laerm;7458;49.002;8.472;2023-02-01T15:14:46;55.53;45.83;68.76;;
37279;Laerm;7458;49.002;8.472;2023-02-01T15:17:27;53.69;45.48;68.83;;
37279;Laerm;7458;49.002;8.472;2023-02-01T15:22:37;53.79;45.51;69.64;;
37279;Laerm;7458;49.002;8.472;2023-02-01T15:25:03;55.00;45.45;68.15;;
37279;Laerm;7458;49.002;8.472;2023-02-01T15:27:31;55.07;45.27;78.75;;
37279;Laerm;7458;49.002;8.472;2023-02-01T15:30:25;62.52;46.76;91.00;;
37279;Laerm;7458;49.002;8.472;2023-02-01T15:33:14;55.50;46.55;70.32;;
37279;Laerm;7458;49.002;8.472;2023-02-01T15:35:45;53.45;45.48;72.49;;
37279;Laerm;7458;49.002;8.472;2023-02-01T15:43:27;54.92;47.03;67.76;;
37279;Laerm;7458;49.002;8.472;2023-02-01T15:45:59;56.23;47.06;69.23;;
37279;Laerm;7458;49.002;8.472;2023-02-01T15:48:34;53.93;46.73;66.64;;
37279;Laerm;7458;49.002;8.472;2023-02-01T15:51:01;57.08;47.32;72.00;;
37279;Laerm;7458;49.002;8.472;2023-02-01T15:53:27;53.33;46.57;64.46;;
37279;Laerm;7458;49.002;8.472;2023-02-01T15:56:03;58.14;46.25;70.63;;
37279;Laerm;7458;49.002;8.472;2023-02-01T15:58:30;55.90;45.60;69.90;;
37279;Laerm;7458;49.002;8.472;2023-02-01T16:01:04;57.30;47.26;70.44;;
37279;Laerm;7458;49.002;8.472;2023-02-01T16:03:39;52.54;45.36;66.00;;
37279;Laerm;7458;49.002;8.472;2023-02-01T16:06:11;59.71;45.89;85.82;;
37279;Laerm;7458;49.002;8.472;2023-02-01T16:08:51;56.40;45.54;74.25;;
37279;Laerm;7458;49.002;8.472;2023-02-01T16:11:31;54.34;45.94;69.32;;
37279;Laerm;7458;49.002;8.472;2023-02-01T16:13:59;56.12;46.18;71.70;;
37279;Laerm;7458;49.002;8.472;2023-02-01T16:16:27;52.01;45.27;68.92;;
37279;Laerm;7458;49.002;8.472;2023-02-01T16:18:53;55.70;47.63;71.50;;
37279;Laerm;7458;49.002;8.472;2023-02-01T16:21:20;54.51;45.66;75.97;;
37279;Laerm;7458;49.002;8.472;2023-02-01T16:23:53;55.54;45.91;76.03;;
37279;Laerm;7458;49.002;8.472;2023-02-01T16:26:19;53.59;45.98;66.40;;
37279;Laerm;7458;49.002;8.472;2023-02-01T16:28:46;62.81;45.51;85.11;;
37279;Laerm;7458;49.002;8.472;2023-02-01T16:31:16;57.73;47.02;73.87;;
37279;Laerm;7458;49.002;8.472;2023-02-01T16:33:50;56.51;46.50;71.98;;
37279;Laerm;7458;49.002;8.472;2023-02-01T16:36:17;53.38;45.80;66.98;;
37279;Laerm;7458;49.002;8.472;2023-02-01T16:38:44;54.96;47.67;68.50;;
37279;Laerm;7458;49.002;8.472;2023-02-01T16:41:20;56.68;46.40;79.34;;
37279;Laerm;7458;49.002;8.472;2023-02-01T16:43:51;54.05;46.40;75.26;;
37279;Laerm;7458;49.002;8.472;2023-02-01T16:46:24;54.74;46.15;68.17;;
37279;Laerm;7458;49.002;8.472;2023-02-01T16:48:58;58.47;45.83;81.12;;
37279;Laerm;7458;49.002;8.472;2023-02-01T16:51:28;55.83;46.36;79.31;;
37279;Laerm;7458;49.002;8.472;2023-02-01T16:53:55;54.76;45.75;71.11;;
37279;Laerm;7458;49.002;8.472;2023-02-01T16:56:32;56.31;45.91;75.61;;